sensor_id;sensor_type;location;lat;lon;timestamp;P1;durP1;ratioP1;P2;durP2;ratioP2
5058;SDS011;2548;52.050;11.036;2022-12-07T00:01:28;18.33;;;12.90;;
5058;SDS011;2548;52.050;11.036;2022-12-07T00:03:58;20.10;;;14.57;;
5058;SDS011;2548;52.050;11.036;2022-12-07T00:06:30;17.50;;;11.65;;
5058;SDS011;2548;52.050;11.036;2022-12-07T00:08:58;19.80;;;13.80;;
5058;SDS011;2548;52.050;11.036;2022-12-07T00:11:26;19.48;;;13.65;;
5058;SDS011;2548;52.050;11.036;2022-12-07T00:13:56;19.38;;;14.38;;
5058;SDS011;2548;52.050;11.036;2022-12-07T00:16:26;20.13;;;14.68;;
5058;SDS011;2548;52.050;11.036;2022-12-07T00:18:55;26.48;;;15.95;;
5058;SDS011;2548;52.050;11.036;2022-12-07T00:21:24;22.75;;;14.80;;
5058;SDS011;2548;52.050;11.036;2022-12-07T00:23:53;16.10;;;12.70;;
5058;SDS011;2548;52.050;11.036;2022-12-07T00:26:22;24.15;;;16.73;;
5058;SDS011;2548;52.050;11.036;2022-12-07T00:28:52;18.25;;;14.35;;
5058;SDS011;2548;52.050;11.036;2022-12-07T00:31:23;19.17;;;14.55;;
5058;SDS011;2548;52.050;11.036;2022-12-07T00:33:53;21.48;;;14.63;;
5058;SDS011;2548;52.050;11.036;2022-12-07T00:36:21;22.02;;;15.50;;
5058;SDS011;2548;52.050;11.036;2022-12-07T00:38:50;22.35;;;16.05;;
5058;SDS011;2548;52.050;11.036;2022-12-07T00:41:18;25.30;;;16.50;;
5058;SDS011;2548;52.050;11.036;2022-12-07T00:43:47;20.23;;;14.77;;
5058;SDS011;2548;52.050;11.036;2022-12-07T00:46:17;21.63;;;14.10;;
5058;SDS011;2548;52.050;11.036;2022-12-07T00:48:46;26.90;;;16.88;;
5058;SDS011;2548;52.050;11.036;2022-12-07T00:51:15;21.20;;;15.73;;
5058;SDS011;2548;52.050;11.036;2022-12-07T00:53:43;22.08;;;15.43;;
5058;SDS011;2548;52.050;11.036;2022-12-07T00:56:12;19.95;;;15.38;;
5058;SDS011;2548;52.050;11.036;2022-12-07T00:58:40;20.98;;;14.55;;
5058;SDS011;2548;52.050;11.036;2022-12-07T01:01:08;22.05;;;15.80;;
5058;SDS011;2548;52.050;11.036;2022-12-07T01:03:38;19.70;;;14.60;;
5058;SDS011;2548;52.050;11.036;2022-12-07T01:06:06;20.67;;;13.65;;
5058;SDS011;2548;52.050;11.036;2022-12-07T01:08:33;27.02;;;15.32;;
5058;SDS011;2548;52.050;11.036;2022-12-07T01:11:02;29.17;;;15.50;;
5058;SDS011;2548;52.050;11.036;2022-12-07T01:13:31;25.80;;;16.33;;
5058;SDS011;2548;52.050;11.036;2022-12-07T01:15:59;21.08;;;14.57;;
5058;SDS011;2548;52.050;11.036;2022-12-07T01:18:28;19.77;;;14.18;;
5058;SDS011;2548;52.050;11.036;2022-12-07T01:20:59;22.10;;;16.90;;
5058;SDS011;2548;52.050;11.036;2022-12-07T01:23:29;23.02;;;16.75;;
5058;SDS011;2548;52.050;11.036;2022-12-07T01:25:57;24.23;;;15.82;;
5058;SDS011;2548;52.050;11.036;2022-12-07T01:28:26;19.75;;;14.90;;
5058;SDS011;2548;52.050;11.036;2022-12-07T01:30:55;22.02;;;16.00;;
5058;SDS011;2548;52.050;11.036;2022-12-07T01:33:24;22.83;;;14.32;;
5058;SDS011;2548;52.050;11.036;2022-12-07T01:35:52;22.50;;;14.48;;
5058;SDS011;2548;52.050;11.036;2022-12-07T01:38:21;20.25;;;14.63;;
5058;SDS011;2548;52.050;11.036;2022-12-07T01:40:53;23.83;;;16.02;;
5058;SDS011;2548;52.050;11.036;2022-12-07T01:43:21;19.23;;;13.60;;
5058;SDS011;2548;52.050;11.036;2022-12-07T01:45:51;19.65;;;14.20;;
5058;SDS011;2548;52.050;11.036;2022-12-07T01:48:19;22.73;;;14.00;;
5058;SDS011;2548;52.050;11.036;2022-12-07T01:50:50;22.10;;;15.50;;
5058;SDS011;2548;52.050;11.036;2022-12-07T01:53:21;22.95;;;13.43;;
5058;SDS011;2548;52.050;11.036;2022-12-07T01:55:54;22.77;;;14.35;;
5058;SDS011;2548;52.050;11.036;2022-12-07T01:58:23;22.08;;;15.25;;
5058;SDS011;2548;52.050;11.036;2022-12-07T02:00:51;24.10;;;15.90;;
5058;SDS011;2548;52.050;11.036;2022-12-07T02:03:20;29.73;;;15.98;;
5058;SDS011;2548;52.050;11.036;2022-12-07T02:05:51;19.90;;;14.35;;
5058;SDS011;2548;52.050;11.036;2022-12-07T02:08:22;24.38;;;14.70;;
5058;SDS011;2548;52.050;11.036;2022-12-07T02:10:50;22.50;;;15.40;;
5058;SDS011;2548;52.050;11.036;2022-12-07T02:13:18;29.70;;;17.25;;
5058;SDS011;2548;52.050;11.036;2022-12-07T02:15:55;24.48;;;15.88;;
5058;SDS011;2548;52.050;11.036;2022-12-07T02:18:35;23.35;;;14.57;;
5058;SDS011;2548;52.050;11.036;2022-12-07T02:21:12;28.48;;;15.63;;
5058;SDS011;2548;52.050;11.036;2022-12-07T02:23:50;24.48;;;16.45;;
5058;SDS011;2548;52.050;11.036;2022-12-07T02:27:02;26.13;;;15.88;;
5058;SDS011;2548;52.050;11.036;2022-12-07T02:30:00;24.33;;;15.73;;
5058;SDS011;2548;52.050;11.036;2022-12-07T02:32:33;23.42;;;16.42;;
5058;SDS011;2548;52.050;11.036;2022-12-07T02:35:09;23.23;;;15.50;;
5058;SDS011;2548;52.050;11.036;2022-12-07T02:37:42;22.92;;;15.10;;
5058;SDS011;2548;52.050;11.036;2022-12-07T02:40:16;26.35;;;14.95;;
5058;SDS011;2548;52.050;11.036;2022-12-07T02:42:50;25.17;;;15.52;;
5058;SDS011;2548;52.050;11.036;2022-12-07T02:45:23;21.35;;;14.00;;
5058;SDS011;2548;52.050;11.036;2022-12-07T02:47:55;21.77;;;14.38;;
5058;SDS011;2548;52.050;11.036;2022-12-07T02:50:25;20.60;;;13.85;;
5058;SDS011;2548;52.050;11.036;2022-12-07T02:52:53;19.25;;;13.40;;
5058;SDS011;2548;52.050;11.036;2022-12-07T02:55:22;16.23;;;12.57;;
5058;SDS011;2548;52.050;11.036;2022-12-07T02:58:02;15.60;;;12.43;;
5058;SDS011;2548;52.050;11.036;2022-12-07T03:00:41;16.88;;;12.55;;
5058;SDS011;2548;52.050;11.036;2022-12-07T03:03:17;15.63;;;12.73;;
5058;SDS011;2548;52.050;11.036;2022-12-07T03:05:49;17.13;;;13.77;;
5058;SDS011;2548;52.050;11.036;2022-12-07T03:08:28;16.30;;;12.60;;
5058;SDS011;2548;52.050;11.036;2022-12-07T03:11:02;17.20;;;13.52;;
5058;SDS011;2548;52.050;11.036;2022-12-07T03:13:35;18.20;;;13.60;;
5058;SDS011;2548;52.050;11.036;2022-12-07T03:16:09;19.17;;;14.43;;
5058;SDS011;2548;52.050;11.036;2022-12-07T03:18:42;20.60;;;14.68;;
5058;SDS011;2548;52.050;11.036;2022-12-07T03:21:14;18.83;;;14.25;;
5058;SDS011;2548;52.050;11.036;2022-12-07T03:23:44;18.33;;;14.18;;
5058;SDS011;2548;52.050;11.036;2022-12-07T03:26:16;18.58;;;15.35;;
5058;SDS011;2548;52.050;11.036;2022-12-07T03:28:47;18.13;;;13.70;;
5058;SDS011;2548;52.050;11.036;2022-12-07T03:31:20;20.15;;;15.55;;
5058;SDS011;2548;52.050;11.036;2022-12-07T03:33:51;21.60;;;16.45;;
5058;SDS011;2548;52.050;11.036;2022-12-07T03:36:28;22.63;;;17.10;;
5058;SDS011;2548;52.050;11.036;2022-12-07T03:39:02;21.77;;;16.75;;
5058;SDS011;2548;52.050;11.036;2022-12-07T03:41:35;23.35;;;15.75;;
5058;SDS011;2548;52.050;11.036;2022-12-07T03:44:04;20.70;;;17.20;;
5058;SDS011;2548;52.050;11.036;2022-12-07T03:46:36;20.88;;;15.13;;
5058;SDS011;2548;52.050;11.036;2022-12-07T03:49:11;19.35;;;14.88;;
5058;SDS011;2548;52.050;11.036;2022-12-07T03:51:45;21.45;;;16.33;;
5058;SDS011;2548;52.050;11.036;2022-12-07T03:54:19;18.80;;;14.70;;
5058;SDS011;2548;52.050;11.036;2022-12-07T03:56:51;21.42;;;17.15;;
5058;SDS011;2548;52.050;11.036;2022-12-07T03:59:20;25.00;;;14.57;;
5058;SDS011;2548;52.050;11.036;2022-12-07T04:01:52;19.80;;;14.40;;
5058;SDS011;2548;52.050;11.036;2022-12-07T04:04:21;20.05;;;14.73;;
5058;SDS011;2548;52.050;11.036;2022-12-07T04:06:49;21.13;;;15.63;;
5058;SDS011;2548;52.050;11.036;2022-12-07T04:09:17;20.33;;;13.98;;
5058;SDS011;2548;52.050;11.036;2022-12-07T04:11:45;22.85;;;16.83;;
5058;SDS011;2548;52.050;11.036;2022-12-07T04:14:12;20.80;;;16.55;;
5058;SDS011;2548;52.050;11.036;2022-12-07T04:16:46;20.23;;;16.17;;
5058;SDS011;2548;52.050;11.036;2022-12-07T04:19:16;20.33;;;15.27;;
5058;SDS011;2548;52.050;11.036;2022-12-07T04:21:45;26.25;;;16.85;;
5058;SDS011;2548;52.050;11.036;2022-12-07T04:24:13;21.70;;;16.40;;
5058;SDS011;2548;52.050;11.036;2022-12-07T04:26:42;22.73;;;16.65;;
5058;SDS011;2548;52.050;11.036;2022-12-07T04:29:10;21.90;;;14.95;;
5058;SDS011;2548;52.050;11.036;2022-12-07T04:31:38;25.30;;;17.98;;
5058;SDS011;2548;52.050;11.036;2022-12-07T04:34:06;25.60;;;16.83;;
5058;SDS011;2548;52.050;11.036;2022-12-07T04:36:35;23.92;;;17.15;;
5058;SDS011;2548;52.050;11.036;2022-12-07T04:39:03;22.15;;;17.20;;
5058;SDS011;2548;52.050;11.036;2022-12-07T04:41:31;22.45;;;16.65;;
5058;SDS011;2548;52.050;11.036;2022-12-07T04:43:59;25.42;;;17.80;;
5058;SDS011;2548;52.050;11.036;2022-12-07T04:46:29;25.98;;;16.27;;
5058;SDS011;2548;52.050;11.036;2022-12-07T04:48:58;23.60;;;17.45;;
5058;SDS011;2548;52.050;11.036;2022-12-07T04:51:26;23.25;;;16.48;;
5058;SDS011;2548;52.050;11.036;2022-12-07T04:53:57;21.77;;;16.33;;
5058;SDS011;2548;52.050;11.036;2022-12-07T04:56:24;24.70;;;17.48;;
5058;SDS011;2548;52.050;11.036;2022-12-07T04:58:53;29.08;;;17.15;;
5058;SDS011;2548;52.050;11.036;2022-12-07T05:01:21;26.20;;;16.45;;
5058;SDS011;2548;52.050;11.036;2022-12-07T05:03:50;27.60;;;18.30;;
5058;SDS011;2548;52.050;11.036;2022-12-07T05:06:17;27.55;;;16.55;;
5058;SDS011;2548;52.050;11.036;2022-12-07T05:08:45;26.77;;;17.67;;
5058;SDS011;2548;52.050;11.036;2022-12-07T05:11:14;22.67;;;16.08;;
5058;SDS011;2548;52.050;11.036;2022-12-07T05:13:56;26.40;;;17.02;;
5058;SDS011;2548;52.050;11.036;2022-12-07T05:16:23;22.73;;;15.85;;
5058;SDS011;2548;52.050;11.036;2022-12-07T05:18:51;27.52;;;17.92;;
5058;SDS011;2548;52.050;11.036;2022-12-07T05:21:18;24.08;;;16.65;;
5058;SDS011;2548;52.050;11.036;2022-12-07T05:23:46;26.13;;;17.05;;
5058;SDS011;2548;52.050;11.036;2022-12-07T05:26:15;34.05;;;17.48;;
5058;SDS011;2548;52.050;11.036;2022-12-07T05:28:43;27.08;;;17.50;;
5058;SDS011;2548;52.050;11.036;2022-12-07T05:31:10;27.83;;;16.70;;
5058;SDS011;2548;52.050;11.036;2022-12-07T05:33:38;28.60;;;17.08;;
5058;SDS011;2548;52.050;11.036;2022-12-07T05:36:05;23.60;;;16.65;;
5058;SDS011;2548;52.050;11.036;2022-12-07T05:38:33;22.42;;;16.42;;
5058;SDS011;2548;52.050;11.036;2022-12-07T05:41:01;22.60;;;15.73;;
5058;SDS011;2548;52.050;11.036;2022-12-07T05:43:30;32.72;;;17.10;;
5058;SDS011;2548;52.050;11.036;2022-12-07T05:45:59;19.98;;;14.93;;
5058;SDS011;2548;52.050;11.036;2022-12-07T05:48:26;25.15;;;14.73;;
5058;SDS011;2548;52.050;11.036;2022-12-07T05:50:54;23.58;;;15.20;;
5058;SDS011;2548;52.050;11.036;2022-12-07T05:53:21;26.67;;;14.57;;
5058;SDS011;2548;52.050;11.036;2022-12-07T05:55:49;26.27;;;16.42;;
5058;SDS011;2548;52.050;11.036;2022-12-07T05:58:16;30.33;;;16.80;;
5058;SDS011;2548;52.050;11.036;2022-12-07T06:01:02;30.60;;;16.75;;
5058;SDS011;2548;52.050;11.036;2022-12-07T06:03:29;21.27;;;15.50;;
5058;SDS011;2548;52.050;11.036;2022-12-07T06:05:57;31.58;;;17.80;;
5058;SDS011;2548;52.050;11.036;2022-12-07T06:08:24;25.27;;;15.68;;
5058;SDS011;2548;52.050;11.036;2022-12-07T06:10:51;23.33;;;16.27;;
5058;SDS011;2548;52.050;11.036;2022-12-07T06:13:39;23.10;;;14.25;;
5058;SDS011;2548;52.050;11.036;2022-12-07T06:16:07;23.85;;;15.20;;
5058;SDS011;2548;52.050;11.036;2022-12-07T06:18:34;22.13;;;15.60;;
5058;SDS011;2548;52.050;11.036;2022-12-07T06:21:02;31.33;;;17.02;;
5058;SDS011;2548;52.050;11.036;2022-12-07T06:23:30;21.92;;;15.13;;
5058;SDS011;2548;52.050;11.036;2022-12-07T06:25:57;24.00;;;15.43;;
5058;SDS011;2548;52.050;11.036;2022-12-07T06:28:24;34.25;;;16.20;;
5058;SDS011;2548;52.050;11.036;2022-12-07T06:30:56;30.67;;;17.88;;
5058;SDS011;2548;52.050;11.036;2022-12-07T06:33:26;27.85;;;17.52;;
5058;SDS011;2548;52.050;11.036;2022-12-07T06:35:53;25.88;;;16.23;;
5058;SDS011;2548;52.050;11.036;2022-12-07T06:38:21;23.80;;;15.48;;
5058;SDS011;2548;52.050;11.036;2022-12-07T06:40:48;23.50;;;15.18;;
5058;SDS011;2548;52.050;11.036;2022-12-07T06:43:16;23.73;;;16.08;;
5058;SDS011;2548;52.050;11.036;2022-12-07T06:45:43;28.30;;;17.65;;
5058;SDS011;2548;52.050;11.036;2022-12-07T06:48:11;23.20;;;16.52;;
5058;SDS011;2548;52.050;11.036;2022-12-07T06:50:39;22.88;;;16.58;;
5058;SDS011;2548;52.050;11.036;2022-12-07T06:53:07;25.63;;;16.10;;
5058;SDS011;2548;52.050;11.036;2022-12-07T06:55:35;28.75;;;17.98;;
5058;SDS011;2548;52.050;11.036;2022-12-07T06:58:03;33.60;;;15.13;;
5058;SDS011;2548;52.050;11.036;2022-12-07T07:00:30;39.63;;;15.93;;
5058;SDS011;2548;52.050;11.036;2022-12-07T07:03:00;26.95;;;14.98;;
5058;SDS011;2548;52.050;11.036;2022-12-07T07:05:28;25.88;;;14.65;;
5058;SDS011;2548;52.050;11.036;2022-12-07T07:07:56;19.50;;;12.77;;
5058;SDS011;2548;52.050;11.036;2022-12-07T07:10:24;24.65;;;15.25;;
5058;SDS011;2548;52.050;11.036;2022-12-07T07:12:51;14.18;;;9.18;;
5058;SDS011;2548;52.050;11.036;2022-12-07T07:15:19;11.18;;;8.80;;
5058;SDS011;2548;52.050;11.036;2022-12-07T07:17:47;12.27;;;9.73;;
5058;SDS011;2548;52.050;11.036;2022-12-07T07:20:14;15.73;;;9.02;;
5058;SDS011;2548;52.050;11.036;2022-12-07T07:22:41;9.65;;;6.53;;
5058;SDS011;2548;52.050;11.036;2022-12-07T07:25:10;8.25;;;5.30;;
5058;SDS011;2548;52.050;11.036;2022-12-07T07:27:38;6.05;;;4.20;;
5058;SDS011;2548;52.050;11.036;2022-12-07T07:30:06;4.05;;;3.80;;
5058;SDS011;2548;52.050;11.036;2022-12-07T07:32:34;3.40;;;3.00;;
5058;SDS011;2548;52.050;11.036;2022-12-07T07:35:01;3.70;;;3.08;;
5058;SDS011;2548;52.050;11.036;2022-12-07T07:37:29;3.53;;;3.30;;
5058;SDS011;2548;52.050;11.036;2022-12-07T07:39:56;3.30;;;2.78;;
5058;SDS011;2548;52.050;11.036;2022-12-07T07:42:25;3.17;;;2.95;;
5058;SDS011;2548;52.050;11.036;2022-12-07T07:44:52;4.47;;;3.20;;
5058;SDS011;2548;52.050;11.036;2022-12-07T07:47:20;2.72;;;2.38;;
5058;SDS011;2548;52.050;11.036;2022-12-07T07:49:47;2.50;;;2.30;;
5058;SDS011;2548;52.050;11.036;2022-12-07T07:52:15;3.90;;;2.58;;
5058;SDS011;2548;52.050;11.036;2022-12-07T07:54:42;3.67;;;2.80;;
5058;SDS011;2548;52.050;11.036;2022-12-07T07:57:09;3.20;;;3.00;;
5058;SDS011;2548;52.050;11.036;2022-12-07T07:59:38;2.50;;;2.40;;
5058;SDS011;2548;52.050;11.036;2022-12-07T08:02:06;2.13;;;2.03;;
5058;SDS011;2548;52.050;11.036;2022-12-07T08:04:35;3.15;;;2.85;;
5058;SDS011;2548;52.050;11.036;2022-12-07T08:07:03;2.95;;;2.35;;
5058;SDS011;2548;52.050;11.036;2022-12-07T08:09:30;5.07;;;2.65;;
5058;SDS011;2548;52.050;11.036;2022-12-07T08:11:58;7.07;;;2.65;;
5058;SDS011;2548;52.050;11.036;2022-12-07T08:14:26;3.75;;;3.53;;
5058;SDS011;2548;52.050;11.036;2022-12-07T08:16:55;6.10;;;3.70;;
5058;SDS011;2548;52.050;11.036;2022-12-07T08:19:23;4.68;;;4.10;;
5058;SDS011;2548;52.050;11.036;2022-12-07T08:21:51;5.00;;;4.68;;
5058;SDS011;2548;52.050;11.036;2022-12-07T08:24:18;5.60;;;4.88;;
5058;SDS011;2548;52.050;11.036;2022-12-07T08:26:45;7.82;;;5.55;;
5058;SDS011;2548;52.050;11.036;2022-12-07T08:29:14;10.55;;;7.22;;
5058;SDS011;2548;52.050;11.036;2022-12-07T08:31:41;9.27;;;6.75;;
5058;SDS011;2548;52.050;11.036;2022-12-07T08:34:11;12.90;;;8.20;;
5058;SDS011;2548;52.050;11.036;2022-12-07T08:36:39;10.95;;;8.73;;
5058;SDS011;2548;52.050;11.036;2022-12-07T08:39:06;16.85;;;9.77;;
5058;SDS011;2548;52.050;11.036;2022-12-07T08:41:34;20.40;;;10.48;;
5058;SDS011;2548;52.050;11.036;2022-12-07T08:44:01;16.17;;;10.65;;
5058;SDS011;2548;52.050;11.036;2022-12-07T08:46:30;13.93;;;10.75;;
5058;SDS011;2548;52.050;11.036;2022-12-07T08:49:03;16.80;;;12.15;;
5058;SDS011;2548;52.050;11.036;2022-12-07T08:51:35;24.05;;;13.25;;
5058;SDS011;2548;52.050;11.036;2022-12-07T08:54:04;27.30;;;11.50;;
5058;SDS011;2548;52.050;11.036;2022-12-07T08:56:34;14.75;;;10.63;;
5058;SDS011;2548;52.050;11.036;2022-12-07T08:59:02;24.42;;;12.73;;
5058;SDS011;2548;52.050;11.036;2022-12-07T09:01:30;37.30;;;16.73;;
5058;SDS011;2548;52.050;11.036;2022-12-07T09:03:58;15.25;;;9.48;;
5058;SDS011;2548;52.050;11.036;2022-12-07T09:06:25;10.20;;;7.95;;
5058;SDS011;2548;52.050;11.036;2022-12-07T09:08:57;15.88;;;7.35;;
5058;SDS011;2548;52.050;11.036;2022-12-07T09:11:27;18.75;;;7.90;;
5058;SDS011;2548;52.050;11.036;2022-12-07T09:13:54;10.23;;;6.93;;
5058;SDS011;2548;52.050;11.036;2022-12-07T09:16:22;8.77;;;5.97;;
5058;SDS011;2548;52.050;11.036;2022-12-07T09:18:49;16.55;;;8.27;;
5058;SDS011;2548;52.050;11.036;2022-12-07T09:21:17;14.85;;;8.93;;
5058;SDS011;2548;52.050;11.036;2022-12-07T09:23:44;9.70;;;7.75;;
5058;SDS011;2548;52.050;11.036;2022-12-07T09:26:13;20.40;;;7.88;;
5058;SDS011;2548;52.050;11.036;2022-12-07T09:28:40;11.27;;;7.80;;
5058;SDS011;2548;52.050;11.036;2022-12-07T09:31:08;12.63;;;8.50;;
5058;SDS011;2548;52.050;11.036;2022-12-07T09:33:35;9.48;;;8.23;;
5058;SDS011;2548;52.050;11.036;2022-12-07T09:36:03;9.18;;;6.95;;
5058;SDS011;2548;52.050;11.036;2022-12-07T09:38:31;17.42;;;9.43;;
5058;SDS011;2548;52.050;11.036;2022-12-07T09:41:03;14.57;;;6.88;;
5058;SDS011;2548;52.050;11.036;2022-12-07T09:43:34;7.70;;;6.90;;
5058;SDS011;2548;52.050;11.036;2022-12-07T09:46:03;10.05;;;6.85;;
5058;SDS011;2548;52.050;11.036;2022-12-07T09:48:32;12.43;;;6.60;;
5058;SDS011;2548;52.050;11.036;2022-12-07T09:51:02;8.05;;;7.15;;
5058;SDS011;2548;52.050;11.036;2022-12-07T09:53:40;9.18;;;8.25;;
5058;SDS011;2548;52.050;11.036;2022-12-07T09:56:09;20.48;;;10.18;;
5058;SDS011;2548;52.050;11.036;2022-12-07T09:58:41;13.38;;;9.73;;
5058;SDS011;2548;52.050;11.036;2022-12-07T10:01:10;11.10;;;7.65;;
5058;SDS011;2548;52.050;11.036;2022-12-07T10:03:40;16.58;;;7.90;;
5058;SDS011;2548;52.050;11.036;2022-12-07T10:06:16;18.83;;;7.57;;
5058;SDS011;2548;52.050;11.036;2022-12-07T10:08:44;28.75;;;11.63;;
5058;SDS011;2548;52.050;11.036;2022-12-07T10:11:12;30.17;;;11.43;;
5058;SDS011;2548;52.050;11.036;2022-12-07T10:13:43;6.43;;;4.97;;
5058;SDS011;2548;52.050;11.036;2022-12-07T10:16:27;7.15;;;5.88;;
5058;SDS011;2548;52.050;11.036;2022-12-07T10:19:17;5.70;;;5.28;;
5058;SDS011;2548;52.050;11.036;2022-12-07T10:21:59;6.10;;;4.40;;
5058;SDS011;2548;52.050;11.036;2022-12-07T10:24:32;4.00;;;3.60;;
5058;SDS011;2548;52.050;11.036;2022-12-07T10:26:59;7.68;;;4.40;;
5058;SDS011;2548;52.050;11.036;2022-12-07T10:29:30;11.20;;;5.15;;
5058;SDS011;2548;52.050;11.036;2022-12-07T10:31:59;24.83;;;5.43;;
5058;SDS011;2548;52.050;11.036;2022-12-07T10:34:29;9.65;;;6.18;;
5058;SDS011;2548;52.050;11.036;2022-12-07T10:37:14;8.52;;;5.60;;
5058;SDS011;2548;52.050;11.036;2022-12-07T10:39:44;9.25;;;6.93;;
5058;SDS011;2548;52.050;11.036;2022-12-07T10:42:16;9.18;;;6.15;;
5058;SDS011;2548;52.050;11.036;2022-12-07T10:44:46;8.85;;;6.82;;
5058;SDS011;2548;52.050;11.036;2022-12-07T10:47:19;13.38;;;6.10;;
5058;SDS011;2548;52.050;11.036;2022-12-07T10:53:06;6.53;;;5.45;;
5058;SDS011;2548;52.050;11.036;2022-12-07T10:55:53;5.53;;;4.72;;
5058;SDS011;2548;52.050;11.036;2022-12-07T10:58:35;4.60;;;4.30;;
5058;SDS011;2548;52.050;11.036;2022-12-07T11:01:16;5.82;;;3.70;;
5058;SDS011;2548;52.050;11.036;2022-12-07T11:03:52;5.72;;;4.60;;
5058;SDS011;2548;52.050;11.036;2022-12-07T11:06:30;4.20;;;3.75;;
5058;SDS011;2548;52.050;11.036;2022-12-07T11:09:04;4.63;;;3.67;;
5058;SDS011;2548;52.050;11.036;2022-12-07T11:11:51;8.52;;;3.40;;
5058;SDS011;2548;52.050;11.036;2022-12-07T11:14:28;6.82;;;3.47;;
5058;SDS011;2548;52.050;11.036;2022-12-07T11:17:04;4.53;;;3.65;;
5058;SDS011;2548;52.050;11.036;2022-12-07T11:19:46;7.32;;;4.88;;
5058;SDS011;2548;52.050;11.036;2022-12-07T11:22:26;3.85;;;3.65;;
5058;SDS011;2548;52.050;11.036;2022-12-07T11:25:10;4.32;;;3.40;;
5058;SDS011;2548;52.050;11.036;2022-12-07T11:27:46;5.60;;;2.60;;
5058;SDS011;2548;52.050;11.036;2022-12-07T11:30:19;4.75;;;2.78;;
5058;SDS011;2548;52.050;11.036;2022-12-07T11:32:56;9.38;;;2.95;;
5058;SDS011;2548;52.050;11.036;2022-12-07T11:35:38;3.88;;;2.75;;
5058;SDS011;2548;52.050;11.036;2022-12-07T11:38:17;5.22;;;2.80;;
5058;SDS011;2548;52.050;11.036;2022-12-07T11:40:48;1.98;;;1.85;;
5058;SDS011;2548;52.050;11.036;2022-12-07T11:43:20;3.97;;;1.80;;
5058;SDS011;2548;52.050;11.036;2022-12-07T11:45:54;5.38;;;1.63;;
5058;SDS011;2548;52.050;11.036;2022-12-07T11:48:30;4.95;;;2.28;;
5058;SDS011;2548;52.050;11.036;2022-12-07T11:51:02;3.90;;;2.35;;
5058;SDS011;2548;52.050;11.036;2022-12-07T11:53:31;2.35;;;1.80;;
5058;SDS011;2548;52.050;11.036;2022-12-07T11:56:06;5.57;;;2.15;;
5058;SDS011;2548;52.050;11.036;2022-12-07T11:58:46;3.75;;;2.33;;
5058;SDS011;2548;52.050;11.036;2022-12-07T12:01:24;2.85;;;2.60;;
5058;SDS011;2548;52.050;11.036;2022-12-07T12:04:03;5.20;;;2.80;;
5058;SDS011;2548;52.050;11.036;2022-12-07T12:06:40;12.85;;;2.72;;
5058;SDS011;2548;52.050;11.036;2022-12-07T12:09:11;5.40;;;3.28;;
5058;SDS011;2548;52.050;11.036;2022-12-07T12:11:50;5.90;;;3.05;;
5058;SDS011;2548;52.050;11.036;2022-12-07T12:14:35;12.93;;;3.10;;
5058;SDS011;2548;52.050;11.036;2022-12-07T12:17:28;6.43;;;2.67;;
5058;SDS011;2548;52.050;11.036;2022-12-07T12:20:16;2.67;;;2.47;;
5058;SDS011;2548;52.050;11.036;2022-12-07T12:22:49;3.47;;;3.03;;
5058;SDS011;2548;52.050;11.036;2022-12-07T12:25:21;4.60;;;2.13;;
5058;SDS011;2548;52.050;11.036;2022-12-07T12:27:51;2.15;;;1.80;;
5058;SDS011;2548;52.050;11.036;2022-12-07T12:33:12;2.88;;;1.95;;
5058;SDS011;2548;52.050;11.036;2022-12-07T12:35:44;5.75;;;2.40;;
5058;SDS011;2548;52.050;11.036;2022-12-07T12:38:29;2.95;;;2.70;;
5058;SDS011;2548;52.050;11.036;2022-12-07T12:40:59;3.03;;;2.83;;
5058;SDS011;2548;52.050;11.036;2022-12-07T12:43:47;8.77;;;4.03;;
5058;SDS011;2548;52.050;11.036;2022-12-07T12:46:37;3.38;;;2.95;;
5058;SDS011;2548;52.050;11.036;2022-12-07T12:58:46;14.93;;;8.02;;
5058;SDS011;2548;52.050;11.036;2022-12-07T13:01:33;9.27;;;7.35;;
5058;SDS011;2548;52.050;11.036;2022-12-07T13:04:18;5.63;;;4.10;;
5058;SDS011;2548;52.050;11.036;2022-12-07T13:07:13;4.00;;;3.60;;
5058;SDS011;2548;52.050;11.036;2022-12-07T13:09:56;7.32;;;3.33;;
5058;SDS011;2548;52.050;11.036;2022-12-07T13:12:23;2.83;;;2.60;;
5058;SDS011;2548;52.050;11.036;2022-12-07T13:14:54;5.60;;;3.30;;
5058;SDS011;2548;52.050;11.036;2022-12-07T13:20:40;6.53;;;4.38;;
5058;SDS011;2548;52.050;11.036;2022-12-07T13:23:11;5.60;;;4.80;;
5058;SDS011;2548;52.050;11.036;2022-12-07T13:28:40;3.70;;;2.63;;
5058;SDS011;2548;52.050;11.036;2022-12-07T13:31:13;2.53;;;2.33;;
5058;SDS011;2548;52.050;11.036;2022-12-07T13:33:45;3.95;;;3.75;;
5058;SDS011;2548;52.050;11.036;2022-12-07T13:36:16;7.38;;;4.00;;
5058;SDS011;2548;52.050;11.036;2022-12-07T13:38:49;4.72;;;4.18;;
5058;SDS011;2548;52.050;11.036;2022-12-07T13:41:19;4.53;;;4.15;;
5058;SDS011;2548;52.050;11.036;2022-12-07T13:44:00;2.97;;;2.80;;
5058;SDS011;2548;52.050;11.036;2022-12-07T13:46:36;3.88;;;3.58;;
5058;SDS011;2548;52.050;11.036;2022-12-07T13:49:18;3.70;;;2.28;;
5058;SDS011;2548;52.050;11.036;2022-12-07T13:51:48;5.22;;;2.03;;
5058;SDS011;2548;52.050;11.036;2022-12-07T13:54:16;6.10;;;1.80;;
5058;SDS011;2548;52.050;11.036;2022-12-07T13:56:47;3.08;;;2.10;;
5058;SDS011;2548;52.050;11.036;2022-12-07T13:59:18;1.92;;;1.77;;
5058;SDS011;2548;52.050;11.036;2022-12-07T14:01:48;6.70;;;1.80;;
5058;SDS011;2548;52.050;11.036;2022-12-07T14:04:30;2.35;;;1.92;;
5058;SDS011;2548;52.050;11.036;2022-12-07T14:07:00;3.90;;;1.77;;
5058;SDS011;2548;52.050;11.036;2022-12-07T14:09:52;2.33;;;2.13;;
5058;SDS011;2548;52.050;11.036;2022-12-07T14:12:21;5.03;;;3.65;;
5058;SDS011;2548;52.050;11.036;2022-12-07T14:14:51;7.55;;;5.65;;
5058;SDS011;2548;52.050;11.036;2022-12-07T14:17:19;16.27;;;7.28;;
5058;SDS011;2548;52.050;11.036;2022-12-07T14:19:50;6.45;;;5.18;;
5058;SDS011;2548;52.050;11.036;2022-12-07T14:22:24;8.52;;;3.67;;
5058;SDS011;2548;52.050;11.036;2022-12-07T14:24:58;3.22;;;2.78;;
5058;SDS011;2548;52.050;11.036;2022-12-07T14:27:30;5.45;;;3.08;;
5058;SDS011;2548;52.050;11.036;2022-12-07T14:30:03;3.42;;;3.13;;
5058;SDS011;2548;52.050;11.036;2022-12-07T14:32:32;4.63;;;2.65;;
5058;SDS011;2548;52.050;11.036;2022-12-07T14:35:03;7.88;;;2.90;;
5058;SDS011;2548;52.050;11.036;2022-12-07T14:37:35;6.07;;;2.95;;
5058;SDS011;2548;52.050;11.036;2022-12-07T14:40:05;3.35;;;2.35;;
5058;SDS011;2548;52.050;11.036;2022-12-07T14:42:38;5.88;;;3.50;;
5058;SDS011;2548;52.050;11.036;2022-12-07T14:45:12;5.38;;;4.57;;
5058;SDS011;2548;52.050;11.036;2022-12-07T14:47:41;6.57;;;5.20;;
5058;SDS011;2548;52.050;11.036;2022-12-07T14:50:11;11.35;;;5.60;;
5058;SDS011;2548;52.050;11.036;2022-12-07T14:52:40;7.05;;;5.30;;
5058;SDS011;2548;52.050;11.036;2022-12-07T14:55:12;7.95;;;5.13;;
5058;SDS011;2548;52.050;11.036;2022-12-07T14:57:41;5.68;;;3.83;;
5058;SDS011;2548;52.050;11.036;2022-12-07T15:00:09;21.15;;;5.22;;
5058;SDS011;2548;52.050;11.036;2022-12-07T15:02:42;15.75;;;5.75;;
5058;SDS011;2548;52.050;11.036;2022-12-07T15:05:11;12.15;;;5.63;;
5058;SDS011;2548;52.050;11.036;2022-12-07T15:07:39;13.63;;;6.40;;
5058;SDS011;2548;52.050;11.036;2022-12-07T15:10:09;16.65;;;8.75;;
5058;SDS011;2548;52.050;11.036;2022-12-07T15:12:41;19.27;;;9.57;;
5058;SDS011;2548;52.050;11.036;2022-12-07T15:15:09;11.95;;;6.30;;
5058;SDS011;2548;52.050;11.036;2022-12-07T15:17:38;6.70;;;3.60;;
5058;SDS011;2548;52.050;11.036;2022-12-07T15:20:07;8.70;;;4.18;;
5058;SDS011;2548;52.050;11.036;2022-12-07T15:22:37;6.35;;;4.63;;
5058;SDS011;2548;52.050;11.036;2022-12-07T15:25:05;4.45;;;2.95;;
5058;SDS011;2548;52.050;11.036;2022-12-07T15:27:33;3.17;;;2.75;;
5058;SDS011;2548;52.050;11.036;2022-12-07T15:30:01;4.90;;;2.92;;
5058;SDS011;2548;52.050;11.036;2022-12-07T15:32:29;17.13;;;6.85;;